Time;durP1;ratioP1;P1;durP2;ratioP2;P2;SDS_P1;SDS_P2;PMS_P1;PMS_P2;Temp;Humidity;BMP_temperature;BMP_pressure;BME280_temperature;BME280_humidity;BME280_pressure;Samples;Min_cycle;Max_cycle;Signal;HPM_P1;HPM_P2
2023/06/08 00:01:38;;;;;;;;;;;15.00;99.90;;;;;;4943602;28;19941;-66
2023/06/08 00:04:12;;;;;;;;;;;14.90;99.90;;;;;;4926062;29;19927;-66
2023/06/08 00:06:44;;;;;;;;;;;14.90;99.90;;;;;;4939605;29;19940;-66
2023/06/08 00:09:11;;;;;;;;;;;14.80;99.90;;;;;;4947461;29;19927;-66
2023/06/08 00:11:38;;;;;;;;;;;14.80;99.90;;;;;;4937878;28;19930;-73
2023/06/08 00:14:10;;;;;;;;;;;14.80;99.90;;;;;;4944173;29;19927;-65
2023/06/08 00:16:42;;;;;;;;;;;14.80;99.90;;;;;;4943462;29;19927;-66
2023/06/08 00:19:08;;;;;;;;;;;14.80;99.90;;;;;;4943013;29;20403;-66
2023/06/08 00:21:42;;;;;;;;;;;14.60;99.90;;;;;;4945447;28;20308;-66
2023/06/08 00:24:20;;;;;;;;;;;14.40;99.90;;;;;;4937520;28;19935;-66
2023/06/08 00:26:52;;;;;;;;;;;14.30;99.90;;;;;;4920852;29;19958;-66
2023/06/08 00:29:24;;;;;;;;;;;14.20;99.90;;;;;;4920938;29;19931;-66
2023/06/08 00:31:51;;;;;;;;;;;14.20;99.90;;;;;;4934043;29;20013;-66
2023/06/08 00:34:25;;;;;;;;;;;14.30;99.90;;;;;;4929603;29;20342;-66
2023/06/08 00:36:57;;;;;;;;;;;14.30;99.90;;;;;;4941954;29;20318;-66
2023/06/08 00:39:31;;;;;;;;;;;14.30;99.90;;;;;;4943601;29;19927;-66
2023/06/08 00:42:03;;;;;;;;;;;14.30;99.90;;;;;;4927857;29;19927;-65
2023/06/08 00:44:35;;;;;;;;;;;14.20;99.90;;;;;;4938949;29;19959;-66
2023/06/08 00:47:08;;;;;;;;;;;14.10;99.90;;;;;;4936728;29;19926;-66
2023/06/08 00:49:40;;;;;;;;;;;14.00;99.90;;;;;;4934437;29;19927;-66
2023/06/08 00:52:07;;;;;;;;;;;14.00;99.90;;;;;;4940777;29;19927;-66
2023/06/08 00:54:39;;;;;;;;;;;14.00;99.90;;;;;;4947579;28;19930;-66
2023/06/08 00:57:08;;;;;;;;;;;14.00;99.90;;;;;;4946443;29;19966;-66
2023/06/08 00:59:41;;;;;;;;;;;13.90;99.90;;;;;;4945009;29;19926;-66
2023/06/08 01:02:13;;;;;;;;;;;14.00;99.90;;;;;;4927780;29;19930;-66
2023/06/08 01:04:40;;;;;;;;;;;14.00;99.90;;;;;;4941875;29;20416;-66
2023/06/08 01:07:14;;;;;;;;;;;14.00;99.90;;;;;;4939670;29;19980;-66
2023/06/08 01:09:52;;;;;;;;;;;14.00;99.90;;;;;;4920541;29;20303;-66
2023/06/08 01:12:29;;;;;;;;;;;13.80;99.90;;;;;;4928496;29;19937;-66
2023/06/08 01:15:11;;;;;;;;;;;13.80;99.90;;;;;;4940222;29;19927;-65
2023/06/08 01:17:52;;;;;;;;;;;13.70;99.90;;;;;;4927241;29;20014;-66
2023/06/08 01:20:29;;;;;;;;;;;13.70;99.90;;;;;;4943981;29;19974;-66
2023/06/08 01:23:20;;;;;;;;;;;13.70;99.90;;;;;;4928195;29;19926;-66
2023/06/08 01:25:53;;;;;;;;;;;13.70;99.90;;;;;;4944449;29;19981;-66
2023/06/08 01:28:20;;;;;;;;;;;13.70;99.90;;;;;;4943593;29;19973;-66
2023/06/08 01:30:52;;;;;;;;;;;13.70;99.90;;;;;;4928104;29;19927;-66
2023/06/08 01:33:26;;;;;;;;;;;13.70;99.90;;;;;;4940447;29;19930;-66
2023/06/08 01:35:58;;;;;;;;;;;13.60;99.90;;;;;;4942351;29;20298;-66
2023/06/08 01:38:45;;;;;;;;;;;13.50;99.90;;;;;;4935420;29;19966;-66
2023/06/08 01:41:24;;;;;;;;;;;13.50;99.90;;;;;;4923412;29;19977;-66
2023/06/08 01:43:56;;;;;;;;;;;13.40;99.90;;;;;;4924255;29;19930;-66
2023/06/08 01:46:29;;;;;;;;;;;13.40;99.90;;;;;;4925984;29;20017;-66
2023/06/08 01:48:58;;;;;;;;;;;13.40;99.90;;;;;;4943322;29;19977;-66
2023/06/08 01:51:31;;;;;;;;;;;13.40;99.90;;;;;;4942190;29;19964;-66
2023/06/08 01:54:04;;;;;;;;;;;13.30;99.90;;;;;;4926514;29;19970;-66
2023/06/08 01:56:32;;;;;;;;;;;13.20;99.90;;;;;;4944220;29;19926;-66
2023/06/08 01:59:04;;;;;;;;;;;13.10;99.90;;;;;;4939357;28;19931;-66
2023/06/08 02:01:36;;;;;;;;;;;13.20;99.90;;;;;;4941817;28;19930;-66
2023/06/08 02:04:07;;;;;;;;;;;13.20;99.90;;;;;;4926421;29;20395;-66
2023/06/08 02:06:39;;;;;;;;;;;13.30;99.90;;;;;;4944459;29;19927;-66
2023/06/08 02:09:11;;;;;;;;;;;13.30;99.90;;;;;;4926751;29;19942;-66
2023/06/08 02:11:43;;;;;;;;;;;13.40;99.90;;;;;;4945183;29;19954;-66
2023/06/08 02:14:15;;;;;;;;;;;13.30;99.90;;;;;;4930437;29;19927;-66
2023/06/08 02:16:49;;;;;;;;;;;13.30;99.90;;;;;;4928870;29;19931;-66
2023/06/08 02:19:22;;;;;;;;;;;13.30;99.90;;;;;;4945421;28;20306;-66
2023/06/08 02:21:54;;;;;;;;;;;13.20;99.90;;;;;;4946277;29;20287;-66
2023/06/08 02:24:21;;;;;;;;;;;13.30;99.90;;;;;;4944216;29;19978;-66
2023/06/08 02:26:54;;;;;;;;;;;13.20;99.90;;;;;;4944810;29;19926;-66
2023/06/08 02:29:27;;;;;;;;;;;13.20;99.90;;;;;;4925846;29;20302;-66
2023/06/08 02:31:59;;;;;;;;;;;13.20;99.90;;;;;;4924885;29;20810;-66
2023/06/08 02:34:32;;;;;;;;;;;13.20;99.90;;;;;;4942872;29;20380;-66
2023/06/08 02:37:06;;;;;;;;;;;13.30;99.90;;;;;;4944380;29;20032;-66
2023/06/08 02:39:38;;;;;;;;;;;13.30;99.90;;;;;;4934851;29;20389;-66
2023/06/08 02:42:05;;;;;;;;;;;13.30;99.90;;;;;;4942402;29;19934;-66
2023/06/08 02:44:37;;;;;;;;;;;13.20;99.90;;;;;;4944279;29;20434;-66
2023/06/08 02:47:09;;;;;;;;;;;13.20;99.90;;;;;;4928785;29;20013;-66
2023/06/08 02:49:42;;;;;;;;;;;13.10;99.90;;;;;;4944409;29;19956;-66
2023/06/08 02:52:14;;;;;;;;;;;13.10;99.90;;;;;;4939906;29;19927;-66
2023/06/08 02:54:45;;;;;;;;;;;13.00;99.90;;;;;;4941608;28;19926;-66
2023/06/08 02:57:12;;;;;;;;;;;12.90;99.90;;;;;;4925200;29;19934;-66
2023/06/08 02:59:46;;;;;;;;;;;12.70;99.90;;;;;;4941171;29;19931;-66
2023/06/08 03:02:18;;;;;;;;;;;12.60;99.90;;;;;;4942479;28;19927;-66
2023/06/08 03:04:53;;;;;;;;;;;12.50;99.90;;;;;;4943032;29;19931;-66
2023/06/08 03:07:25;;;;;;;;;;;12.50;99.90;;;;;;4947072;29;19931;-66
2023/06/08 03:09:57;;;;;;;;;;;12.50;99.90;;;;;;4920300;29;19970;-66
2023/06/08 03:12:24;;;;;;;;;;;12.50;99.90;;;;;;4942347;28;19927;-66
2023/06/08 03:14:58;;;;;;;;;;;12.40;99.90;;;;;;4929014;29;19934;-66
2023/06/08 03:17:32;;;;;;;;;;;12.40;99.90;;;;;;4940150;29;19982;-66
2023/06/08 03:20:00;;;;;;;;;;;12.40;99.90;;;;;;4938005;29;19938;-66
2023/06/08 03:22:36;;;;;;;;;;;12.30;99.90;;;;;;4925603;29;19931;-66
2023/06/08 03:25:09;;;;;;;;;;;12.30;99.90;;;;;;4939702;28;20311;-66
2023/06/08 03:27:37;;;;;;;;;;;12.30;99.90;;;;;;4942660;29;20405;-66
2023/06/08 03:30:12;;;;;;;;;;;12.30;99.90;;;;;;4927046;29;19926;-66
2023/06/08 03:32:49;;;;;;;;;;;12.40;99.90;;;;;;4942894;29;19941;-66
2023/06/08 03:35:27;;;;;;;;;;;12.50;99.90;;;;;;4940805;29;20025;-66
2023/06/08 03:38:19;;;;;;;;;;;12.50;99.90;;;;;;4940810;29;19950;-66
2023/06/08 03:40:47;;;;;;;;;;;12.60;99.90;;;;;;4923511;29;20024;-66
2023/06/08 03:43:20;;;;;;;;;;;12.60;99.90;;;;;;4938896;29;19949;-66
2023/06/08 03:45:53;;;;;;;;;;;12.50;99.90;;;;;;4936874;29;20403;-66
2023/06/08 03:48:20;;;;;;;;;;;12.50;99.90;;;;;;4940112;29;20000;-66
2023/06/08 03:50:53;;;;;;;;;;;12.40;99.90;;;;;;4951325;29;20292;-66
2023/06/08 03:53:25;;;;;;;;;;;12.40;99.90;;;;;;4919877;28;19930;-66
2023/06/08 03:55:57;;;;;;;;;;;12.40;99.90;;;;;;4943453;29;20474;-66
2023/06/08 03:58:32;;;;;;;;;;;12.40;99.90;;;;;;4926507;29;19974;-66
2023/06/08 04:01:05;;;;;;;;;;;12.40;99.90;;;;;;4937955;29;20017;-66
2023/06/08 04:03:37;;;;;;;;;;;12.30;99.90;;;;;;4934586;29;20021;-66
2023/06/08 04:06:09;;;;;;;;;;;12.40;99.90;;;;;;4921952;29;19937;-66
2023/06/08 04:08:41;;;;;;;;;;;12.40;99.90;;;;;;4919515;29;19938;-66
2023/06/08 04:11:13;;;;;;;;;;;12.50;99.90;;;;;;4941534;29;19946;-66
2023/06/08 04:13:40;;;;;;;;;;;12.40;99.90;;;;;;4949545;29;19934;-66
2023/06/08 04:16:14;;;;;;;;;;;12.30;99.90;;;;;;4947306;29;20399;-66
2023/06/08 04:18:51;;;;;;;;;;;12.20;99.90;;;;;;4929810;29;19926;-66
2023/06/08 04:21:26;;;;;;;;;;;12.20;99.90;;;;;;4943034;29;19930;-66
2023/06/08 04:24:04;;;;;;;;;;;12.20;99.90;;;;;;4926317;29;19941;-66
2023/06/08 04:26:38;;;;;;;;;;;12.20;99.90;;;;;;4942382;29;19977;-66
2023/06/08 04:29:12;;;;;;;;;;;12.20;99.90;;;;;;4942263;29;19927;-66
2023/06/08 04:31:44;;;;;;;;;;;12.30;99.90;;;;;;4950369;29;20001;-66
2023/06/08 04:34:17;;;;;;;;;;;12.30;99.90;;;;;;4934328;29;19933;-66
2023/06/08 04:36:49;;;;;;;;;;;12.40;99.90;;;;;;4944181;29;19933;-66
2023/06/08 04:39:16;;;;;;;;;;;12.50;99.90;;;;;;4943331;28;19927;-66
2023/06/08 04:41:47;;;;;;;;;;;12.60;99.90;;;;;;4928463;29;19930;-66
2023/06/08 04:44:20;;;;;;;;;;;12.70;99.90;;;;;;4928383;29;20013;-66
2023/06/08 04:46:49;;;;;;;;;;;12.80;99.90;;;;;;4943627;29;20413;-66
2023/06/08 04:49:16;;;;;;;;;;;12.80;99.90;;;;;;4947915;29;20379;-66
2023/06/08 04:51:48;;;;;;;;;;;12.90;99.90;;;;;;4949280;29;19931;-66
2023/06/08 04:54:21;;;;;;;;;;;12.90;99.90;;;;;;4935572;29;19930;-66
2023/06/08 04:56:59;;;;;;;;;;;12.90;99.90;;;;;;4935741;29;19990;-66
2023/06/08 04:59:30;;;;;;;;;;;12.90;99.90;;;;;;4924306;29;19927;-66
2023/06/08 05:02:03;;;;;;;;;;;12.90;99.90;;;;;;4942323;28;19930;-66
2023/06/08 05:04:30;;;;;;;;;;;12.90;99.90;;;;;;4952292;28;20017;-66
2023/06/08 05:06:57;;;;;;;;;;;13.00;99.90;;;;;;4941392;29;20017;-64
2023/06/08 05:09:30;;;;;;;;;;;12.90;99.90;;;;;;4942184;29;20346;-66
2023/06/08 05:11:57;;;;;;;;;;;12.90;99.90;;;;;;4948541;28;19927;-66
2023/06/08 05:14:24;;;;;;;;;;;13.00;99.90;;;;;;4949948;29;19965;-66
2023/06/08 05:16:56;;;;;;;;;;;13.00;99.90;;;;;;4949817;28;19934;-66
2023/06/08 05:19:28;;;;;;;;;;;13.10;99.90;;;;;;4946304;29;20396;-66
2023/06/08 05:21:59;;;;;;;;;;;13.10;99.90;;;;;;4938190;29;19927;-66
2023/06/08 05:24:31;;;;;;;;;;;13.20;99.90;;;;;;4942766;29;19927;-66
2023/06/08 05:27:03;;;;;;;;;;;13.30;99.90;;;;;;4937426;29;19934;-66
2023/06/08 05:29:35;;;;;;;;;;;13.40;99.90;;;;;;4946680;28;19933;-66
2023/06/08 05:32:07;;;;;;;;;;;13.40;99.90;;;;;;4948799;28;19930;-66
2023/06/08 05:34:39;;;;;;;;;;;13.50;99.90;;;;;;4940852;29;19927;-66
2023/06/08 05:37:10;;;;;;;;;;;13.50;99.90;;;;;;4949357;28;20387;-67
2023/06/08 05:39:42;;;;;;;;;;;13.50;99.90;;;;;;4952276;29;19930;-66
2023/06/08 05:42:14;;;;;;;;;;;13.60;99.90;;;;;;4951773;28;19930;-66
2023/06/08 05:44:41;;;;;;;;;;;13.60;99.90;;;;;;4951385;28;19937;-66
2023/06/08 05:47:13;;;;;;;;;;;13.70;99.90;;;;;;4931088;29;19930;-66
2023/06/08 05:49:45;;;;;;;;;;;13.80;99.90;;;;;;4943209;29;19958;-66
2023/06/08 05:52:16;;;;;;;;;;;13.80;99.90;;;;;;4946604;29;20387;-66
2023/06/08 05:54:43;;;;;;;;;;;13.90;99.90;;;;;;4929318;29;20459;-66
2023/06/08 05:57:15;;;;;;;;;;;13.90;99.90;;;;;;4948127;28;19927;-66
2023/06/08 05:59:46;;;;;;;;;;;14.00;99.90;;;;;;4944003;28;20411;-66
2023/06/08 06:02:18;;;;;;;;;;;14.00;99.90;;;;;;4945868;29;19931;-66
2023/06/08 06:04:50;;;;;;;;;;;14.10;99.90;;;;;;4948997;28;19926;-66
2023/06/08 06:07:22;;;;;;;;;;;14.20;99.90;;;;;;4944091;29;19927;-66
2023/06/08 06:09:54;;;;;;;;;;;14.30;99.90;;;;;;4939779;29;19926;-66
2023/06/08 06:12:21;;;;;;;;;;;14.40;99.90;;;;;;4941683;29;19927;-66
2023/06/08 06:14:55;;;;;;;;;;;14.50;99.90;;;;;;4941536;29;19933;-66
2023/06/08 06:17:22;;;;;;;;;;;14.50;99.90;;;;;;4942073;29;19933;-66
2023/06/08 06:19:49;;;;;;;;;;;14.50;99.90;;;;;;4943760;29;19974;-66
2023/06/08 06:22:22;;;;;;;;;;;14.60;99.90;;;;;;4928569;29;19931;-66
2023/06/08 06:24:53;;;;;;;;;;;14.70;99.90;;;;;;4931814;29;19926;-66
2023/06/08 06:27:25;;;;;;;;;;;14.80;99.90;;;;;;4949890;28;19932;-66
2023/06/08 06:29:52;;;;;;;;;;;14.80;99.90;;;;;;4948349;29;20409;-66
2023/06/08 06:32:24;;;;;;;;;;;14.90;99.90;;;;;;4952474;28;19926;-66
2023/06/08 06:34:56;;;;;;;;;;;15.00;99.90;;;;;;4942775;29;19931;-66
2023/06/08 06:37:34;;;;;;;;;;;15.10;99.90;;;;;;4950559;29;20013;-65
2023/06/08 06:40:06;;;;;;;;;;;15.20;99.90;;;;;;4947153;28;20311;-66
2023/06/08 06:42:33;;;;;;;;;;;15.20;99.90;;;;;;4945996;28;20013;-66
2023/06/08 06:45:16;;;;;;;;;;;15.30;99.90;;;;;;4945913;28;19942;-66
2023/06/08 06:47:48;;;;;;;;;;;15.40;99.90;;;;;;4952896;28;19930;-66
2023/06/08 06:50:20;;;;;;;;;;;15.50;99.90;;;;;;4951860;29;19937;-66
2023/06/08 06:52:47;;;;;;;;;;;15.70;99.90;;;;;;4947169;29;20498;-65
2023/06/08 06:55:13;;;;;;;;;;;15.80;99.90;;;;;;4949387;28;20411;-66
2023/06/08 06:57:48;;;;;;;;;;;15.80;99.90;;;;;;4948070;28;19926;-66
2023/06/08 07:00:15;;;;;;;;;;;15.90;99.90;;;;;;4939237;29;19934;-64
2023/06/08 07:02:42;;;;;;;;;;;16.00;99.90;;;;;;4947896;28;20021;-67
2023/06/08 07:05:14;;;;;;;;;;;16.10;99.90;;;;;;4948991;28;19934;-66
2023/06/08 07:07:46;;;;;;;;;;;16.30;99.90;;;;;;4950700;28;19936;-66
2023/06/08 07:10:17;;;;;;;;;;;16.40;99.90;;;;;;4950413;28;19953;-66
2023/06/08 07:12:49;;;;;;;;;;;16.50;99.90;;;;;;4949018;29;19934;-66
2023/06/08 07:15:21;;;;;;;;;;;16.60;99.90;;;;;;4944378;28;20001;-64
2023/06/08 07:17:54;;;;;;;;;;;16.80;99.90;;;;;;4948931;28;19934;-67
2023/06/08 07:20:26;;;;;;;;;;;16.90;99.90;;;;;;4935749;29;20585;-66
2023/06/08 07:22:58;;;;;;;;;;;17.00;99.90;;;;;;4947273;29;20029;-66
2023/06/08 07:25:25;;;;;;;;;;;17.20;99.90;;;;;;4943223;28;20352;-66
2023/06/08 07:27:57;;;;;;;;;;;17.30;99.90;;;;;;4946855;28;19937;-66
2023/06/08 07:30:29;;;;;;;;;;;17.40;99.90;;;;;;4947307;29;19930;-68
2023/06/08 07:33:01;;;;;;;;;;;17.50;99.90;;;;;;4947427;29;19931;-66
2023/06/08 07:35:33;;;;;;;;;;;17.60;99.90;;;;;;4954069;28;20001;-66
2023/06/08 07:38:06;;;;;;;;;;;17.70;99.90;;;;;;4950106;28;19931;-65
2023/06/08 07:40:37;;;;;;;;;;;17.80;99.90;;;;;;4944825;28;19940;-66
2023/06/08 07:43:09;;;;;;;;;;;17.90;99.90;;;;;;4947727;29;19934;-66
2023/06/08 07:45:40;;;;;;;;;;;18.10;99.90;;;;;;4931277;29;19931;-66
2023/06/08 07:48:12;;;;;;;;;;;18.20;99.90;;;;;;4951350;28;20429;-66
2023/06/08 07:50:44;;;;;;;;;;;18.40;99.90;;;;;;4929665;29;19938;-66
2023/06/08 07:53:17;;;;;;;;;;;18.50;99.90;;;;;;4933806;29;19926;-66
2023/06/08 07:55:43;;;;;;;;;;;18.60;99.90;;;;;;4940769;29;19972;-66
2023/06/08 07:58:15;;;;;;;;;;;18.70;99.90;;;;;;4933372;28;19933;-65
2023/06/08 08:00:47;;;;;;;;;;;18.90;99.90;;;;;;4933872;29;19934;-66
2023/06/08 08:03:19;;;;;;;;;;;19.00;99.90;;;;;;4948939;29;19976;-66
2023/06/08 08:05:51;;;;;;;;;;;19.10;99.90;;;;;;4950189;28;19927;-66
2023/06/08 08:08:22;;;;;;;;;;;19.20;99.90;;;;;;4932466;28;20024;-66
2023/06/08 08:10:49;;;;;;;;;;;19.40;99.90;;;;;;4964065;23;19933;-65
2023/06/08 08:13:21;;;;;;;;;;;19.50;99.90;;;;;;4943535;29;19927;-65
2023/06/08 08:15:48;;;;;;;;;;;19.60;99.90;;;;;;4947424;29;20358;-65
2023/06/08 08:18:19;;;;;;;;;;;19.70;99.90;;;;;;4938082;28;19973;-64
2023/06/08 08:20:51;;;;;;;;;;;19.90;99.90;;;;;;4945462;28;20418;-65
2023/06/08 08:23:23;;;;;;;;;;;20.00;99.90;;;;;;4934869;29;20314;-64
2023/06/08 08:25:55;;;;;;;;;;;20.20;99.90;;;;;;4945168;29;19927;-64
2023/06/08 08:28:27;;;;;;;;;;;20.20;99.90;;;;;;4930487;29;19941;-64
2023/06/08 08:30:59;;;;;;;;;;;20.40;99.90;;;;;;4936389;28;19931;-65
2023/06/08 08:33:31;;;;;;;;;;;20.50;99.90;;;;;;4934661;28;19931;-64
2023/06/08 08:36:04;;;;;;;;;;;20.60;99.90;;;;;;4931067;29;19938;-64
2023/06/08 08:38:38;;;;;;;;;;;20.80;99.90;;;;;;4945785;29;19937;-64
2023/06/08 08:41:12;;;;;;;;;;;20.90;99.90;;;;;;4945806;28;19932;-64
2023/06/08 08:43:44;;;;;;;;;;;21.00;99.90;;;;;;4945433;29;19927;-64
2023/06/08 08:46:17;;;;;;;;;;;21.20;99.90;;;;;;4941753;29;19927;-64
2023/06/08 08:48:55;;;;;;;;;;;21.40;99.90;;;;;;4943411;28;20013;-64
2023/06/08 08:51:28;;;;;;;;;;;21.50;99.90;;;;;;4949528;28;19937;-64
2023/06/08 08:54:03;;;;;;;;;;;21.60;99.90;;;;;;4931578;29;20382;-64
2023/06/08 08:56:37;;;;;;;;;;;21.70;99.90;;;;;;4945641;29;20025;-65
2023/06/08 08:59:09;;;;;;;;;;;21.90;99.90;;;;;;4947578;28;19926;-64
2023/06/08 09:01:40;;;;;;;;;;;22.10;99.90;;;;;;4926312;29;20422;-64
2023/06/08 09:04:12;;;;;;;;;;;22.20;99.90;;;;;;4943555;28;19927;-64
2023/06/08 09:06:50;;;;;;;;;;;22.30;99.90;;;;;;4939783;29;20429;-65
2023/06/08 09:09:22;;;;;;;;;;;22.50;99.90;;;;;;4951112;28;19939;-65
2023/06/08 09:12:01;;;;;;;;;;;22.60;99.90;;;;;;4933950;29;19938;-64
2023/06/08 09:14:33;;;;;;;;;;;22.80;99.90;;;;;;4930195;29;20005;-64
2023/06/08 09:17:07;;;;;;;;;;;22.90;99.90;;;;;;4925998;28;20029;-65
2023/06/08 09:19:51;;;;;;;;;;;23.10;99.90;;;;;;4947034;28;19949;-64
2023/06/08 09:22:27;;;;;;;;;;;23.30;99.90;;;;;;4934823;29;19942;-64
2023/06/08 09:25:02;;;;;;;;;;;23.40;99.90;;;;;;4943059;29;19978;-64
2023/06/08 09:27:33;;;;;;;;;;;23.60;99.90;;;;;;4949043;28;19949;-64
2023/06/08 09:30:21;;;;;;;;;;;23.70;99.90;;;;;;4919060;29;19930;-64
2023/06/08 09:32:53;;;;;;;;;;;23.90;99.90;;;;;;4933616;29;19933;-65
2023/06/08 09:35:25;;;;;;;;;;;24.00;99.90;;;;;;4940542;29;19935;-64
2023/06/08 09:37:53;;;;;;;;;;;23.90;99.90;;;;;;4940502;29;19927;-64
2023/06/08 09:40:25;;;;;;;;;;;23.90;99.30;;;;;;4928496;29;20013;-64
2023/06/08 09:42:57;;;;;;;;;;;23.90;98.80;;;;;;4944411;29;19949;-65
2023/06/08 09:45:30;;;;;;;;;;;24.10;97.00;;;;;;4949353;28;20377;-64
2023/06/08 09:48:09;;;;;;;;;;;24.30;95.80;;;;;;4947266;28;19956;-64
2023/06/08 09:50:42;;;;;;;;;;;24.50;95.70;;;;;;4943976;29;19938;-66
2023/06/08 09:53:14;;;;;;;;;;;24.60;94.40;;;;;;4936920;28;19927;-64
2023/06/08 09:55:45;;;;;;;;;;;24.90;93.30;;;;;;4932970;29;19926;-65
2023/06/08 09:58:17;;;;;;;;;;;25.00;92.40;;;;;;4934028;29;20001;-65
2023/06/08 10:00:49;;;;;;;;;;;25.10;91.30;;;;;;4936214;29;19930;-64
2023/06/08 10:03:21;;;;;;;;;;;25.30;91.40;;;;;;4947740;29;19973;-64
2023/06/08 10:05:53;;;;;;;;;;;25.30;89.00;;;;;;4949642;29;20350;-64
2023/06/08 10:08:26;;;;;;;;;;;25.50;91.60;;;;;;4952192;29;19966;-64
2023/06/08 10:10:59;;;;;;;;;;;25.60;92.50;;;;;;4948017;29;20343;-65
2023/06/08 10:13:31;;;;;;;;;;;25.70;91.10;;;;;;4954914;28;19930;-64
2023/06/08 10:16:03;;;;;;;;;;;25.70;90.70;;;;;;4946941;29;19978;-65
2023/06/08 10:18:37;;;;;;;;;;;25.80;90.80;;;;;;4934974;29;19927;-64
2023/06/08 10:21:09;;;;;;;;;;;25.80;90.00;;;;;;4931975;29;20383;-64
2023/06/08 10:23:41;;;;;;;;;;;25.80;89.20;;;;;;4937624;28;19933;-64
2023/06/08 10:26:13;;;;;;;;;;;25.80;89.50;;;;;;4943690;29;19965;-65
2023/06/08 10:29:06;;;;;;;;;;;25.80;89.00;;;;;;4936894;29;19927;-65
2023/06/08 10:31:39;;;;;;;;;;;25.90;83.90;;;;;;4937646;29;20021;-65
2023/06/08 10:34:12;;;;;;;;;;;25.90;86.00;;;;;;4937901;29;20359;-65
2023/06/08 10:36:44;;;;;;;;;;;26.00;86.40;;;;;;4946627;29;20367;-65
2023/06/08 10:39:17;;;;;;;;;;;26.10;88.40;;;;;;4936743;29;19934;-64
2023/06/08 10:41:56;;;;;;;;;;;26.20;88.40;;;;;;4926360;29;19930;-64
2023/06/08 10:44:29;;;;;;;;;;;26.20;88.00;;;;;;4933842;29;20307;-65
2023/06/08 10:47:06;;;;;;;;;;;26.30;85.70;;;;;;4943474;29;19926;-65
2023/06/08 10:49:43;;;;;;;;;;;26.40;84.90;;;;;;4938645;29;20022;-65
2023/06/08 10:52:16;;;;;;;;;;;26.60;81.20;;;;;;4950007;29;19988;-65
2023/06/08 10:54:51;;;;;;;;;;;26.60;82.20;;;;;;4947802;28;19989;-65
2023/06/08 10:57:49;;;;;;;;;;;26.80;84.40;;;;;;4934658;29;19926;-65
2023/06/08 11:00:29;;;;;;;;;;;26.90;80.20;;;;;;4954545;28;19926;-65
2023/06/08 11:03:01;;;;;;;;;;;27.10;78.90;;;;;;4936169;29;19981;-65
2023/06/08 11:05:36;;;;;;;;;;;27.10;81.80;;;;;;4941463;29;19926;-65
2023/06/08 11:08:04;;;;;;;;;;;27.20;77.00;;;;;;4951669;28;20292;-65
2023/06/08 11:10:39;;;;;;;;;;;27.20;77.30;;;;;;4933624;29;19926;-65
2023/06/08 11:13:10;;;;;;;;;;;27.30;79.50;;;;;;4928632;28;20387;-65
2023/06/08 11:15:44;;;;;;;;;;;27.40;78.60;;;;;;4943608;29;19931;-65
2023/06/08 11:18:18;;;;;;;;;;;27.00;77.10;;;;;;4934165;28;20015;-65
2023/06/08 11:20:45;;;;;;;;;;;26.70;77.80;;;;;;4949087;28;19990;-65
2023/06/08 11:23:17;;;;;;;;;;;26.50;75.60;;;;;;4940663;28;20317;-65
2023/06/08 11:25:49;;;;;;;;;;;26.20;75.50;;;;;;4933111;29;20005;-64
2023/06/08 11:28:21;;;;;;;;;;;25.90;76.40;;;;;;4949366;29;20008;-67
2023/06/08 11:30:53;;;;;;;;;;;25.60;75.50;;;;;;4948557;29;20415;-65
2023/06/08 11:33:25;;;;;;;;;;;25.50;76.50;;;;;;4934715;28;19930;-66
2023/06/08 11:35:57;;;;;;;;;;;25.40;78.40;;;;;;4945637;28;20399;-66
2023/06/08 11:38:24;;;;;;;;;;;25.30;76.80;;;;;;4952988;28;20017;-67
2023/06/08 11:40:56;;;;;;;;;;;25.30;76.00;;;;;;4946294;28;19927;-66
2023/06/08 11:43:23;;;;;;;;;;;25.20;77.10;;;;;;4948447;29;19969;-66
2023/06/08 11:45:56;;;;;;;;;;;25.30;80.70;;;;;;4945001;29;20338;-66
2023/06/08 11:48:28;;;;;;;;;;;25.30;79.50;;;;;;4936753;29;19935;-66
2023/06/08 11:51:00;;;;;;;;;;;25.50;80.10;;;;;;4930496;29;19926;-66
2023/06/08 11:53:31;;;;;;;;;;;25.80;75.10;;;;;;4938939;28;19927;-67
2023/06/08 11:56:03;;;;;;;;;;;26.10;72.50;;;;;;4933362;29;20614;-66
2023/06/08 11:58:37;;;;;;;;;;;26.40;78.10;;;;;;4948755;28;19930;-67
2023/06/08 12:01:13;;;;;;;;;;;26.70;75.50;;;;;;4916950;29;19934;-66
2023/06/08 12:03:46;;;;;;;;;;;27.00;73.40;;;;;;4916759;29;19933;-66
2023/06/08 12:06:18;;;;;;;;;;;27.10;70.50;;;;;;4947314;28;19961;-66
2023/06/08 12:08:53;;;;;;;;;;;27.30;70.10;;;;;;4940295;29;20380;-67
2023/06/08 12:11:25;;;;;;;;;;;27.30;68.20;;;;;;4935024;29;19931;-66
2023/06/08 12:13:53;;;;;;;;;;;27.10;67.50;;;;;;4947453;28;19927;-66
2023/06/08 12:16:24;;;;;;;;;;;27.00;70.10;;;;;;4949875;28;19927;-66
2023/06/08 12:18:56;;;;;;;;;;;26.90;71.60;;;;;;4934789;29;19942;-66
2023/06/08 12:21:23;;;;;;;;;;;26.80;72.10;;;;;;4945100;28;20410;-66
2023/06/08 12:23:50;;;;;;;;;;;26.70;71.60;;;;;;4951262;29;19930;-66
2023/06/08 12:26:22;;;;;;;;;;;26.50;71.60;;;;;;4935249;29;19934;-66
2023/06/08 12:28:53;;;;;;;;;;;26.30;72.00;;;;;;4935895;29;20021;-66
2023/06/08 12:31:25;;;;;;;;;;;26.30;78.20;;;;;;4941424;28;19986;-66
2023/06/08 12:33:57;;;;;;;;;;;26.30;74.70;;;;;;4947831;29;20025;-66
2023/06/08 12:36:29;;;;;;;;;;;26.40;75.50;;;;;;4944182;28;20114;-66
2023/06/08 12:39:01;;;;;;;;;;;26.50;76.10;;;;;;4943810;29;20021;-66
2023/06/08 12:41:33;;;;;;;;;;;26.50;77.80;;;;;;4939176;28;19930;-67
2023/06/08 12:44:05;;;;;;;;;;;26.60;78.70;;;;;;4945234;29;19926;-66
2023/06/08 12:46:36;;;;;;;;;;;26.60;77.20;;;;;;4922136;29;20021;-67
2023/06/08 12:49:08;;;;;;;;;;;27.00;75.30;;;;;;4930110;29;19927;-66
2023/06/08 12:51:40;;;;;;;;;;;27.50;75.40;;;;;;4940832;28;20430;-67
2023/06/08 12:54:11;;;;;;;;;;;28.00;74.10;;;;;;4937969;29;19937;-66
2023/06/08 12:56:44;;;;;;;;;;;28.40;68.80;;;;;;4938823;29;19934;-66
2023/06/08 12:59:11;;;;;;;;;;;28.50;66.10;;;;;;4936729;29;19936;-66
2023/06/08 13:01:42;;;;;;;;;;;28.20;67.60;;;;;;4944566;28;19927;-67
2023/06/08 13:04:15;;;;;;;;;;;27.90;70.50;;;;;;4944225;29;20395;-67
2023/06/08 13:06:47;;;;;;;;;;;27.70;68.50;;;;;;4933101;29;19927;-66
2023/06/08 13:09:18;;;;;;;;;;;27.90;70.00;;;;;;4946664;28;19937;-66
2023/06/08 13:11:50;;;;;;;;;;;28.30;68.30;;;;;;4939770;28;20045;-67
2023/06/08 13:14:22;;;;;;;;;;;28.50;66.90;;;;;;4941701;28;19927;-66
2023/06/08 13:16:54;;;;;;;;;;;28.70;64.50;;;;;;4936368;29;19934;-67
2023/06/08 13:19:21;;;;;;;;;;;29.00;65.40;;;;;;4942707;28;19934;-66
2023/06/08 13:21:53;;;;;;;;;;;29.30;64.10;;;;;;4934438;29;20359;-67
2023/06/08 13:24:25;;;;;;;;;;;29.50;63.10;;;;;;4948130;29;20011;-66
2023/06/08 13:26:58;;;;;;;;;;;29.60;63.30;;;;;;4938929;28;19933;-66
2023/06/08 13:29:24;;;;;;;;;;;29.50;62.80;;;;;;4946559;29;19938;-67
2023/06/08 13:31:51;;;;;;;;;;;29.60;63.80;;;;;;4945087;28;20417;-66
2023/06/08 13:34:23;;;;;;;;;;;29.90;63.70;;;;;;4941287;29;19969;-66
2023/06/08 13:36:55;;;;;;;;;;;30.10;60.20;;;;;;4944036;28;20417;-66
2023/06/08 13:39:27;;;;;;;;;;;30.20;60.20;;;;;;4934213;29;19930;-66
2023/06/08 13:41:59;;;;;;;;;;;30.20;59.30;;;;;;4953966;28;20291;-67
2023/06/08 13:44:26;;;;;;;;;;;29.70;59.60;;;;;;4937018;29;19933;-66
2023/06/08 13:46:59;;;;;;;;;;;29.20;60.30;;;;;;4948772;28;19927;-66
2023/06/08 13:49:30;;;;;;;;;;;29.00;60.70;;;;;;4929389;29;20306;-66
2023/06/08 13:51:57;;;;;;;;;;;28.80;58.70;;;;;;4935767;29;20017;-67
2023/06/08 13:54:29;;;;;;;;;;;28.70;58.30;;;;;;4927387;29;19942;-67
2023/06/08 13:57:03;;;;;;;;;;;28.80;58.20;;;;;;4932116;28;19962;-67
2023/06/08 13:59:34;;;;;;;;;;;28.90;58.50;;;;;;4938389;29;20384;-66
2023/06/08 14:02:06;;;;;;;;;;;29.10;56.20;;;;;;4924858;28;20321;-66
2023/06/08 14:04:38;;;;;;;;;;;29.40;56.00;;;;;;4922759;29;19926;-66
2023/06/08 14:07:09;;;;;;;;;;;29.80;56.70;;;;;;4930532;28;19952;-70
2023/06/08 14:09:41;;;;;;;;;;;30.10;56.40;;;;;;4914500;29;19933;-69
2023/06/08 14:12:14;;;;;;;;;;;30.30;56.30;;;;;;4961683;23;19942;-68
2023/06/08 14:14:49;;;;;;;;;;;30.30;54.20;;;;;;4952331;29;19981;-69
2023/06/08 14:17:16;;;;;;;;;;;30.40;54.30;;;;;;4954075;28;20447;-66
2023/06/08 14:19:48;;;;;;;;;;;30.50;53.80;;;;;;4936368;29;19949;-66
2023/06/08 14:22:20;;;;;;;;;;;30.80;56.20;;;;;;4951696;28;19934;-67
2023/06/08 14:24:52;;;;;;;;;;;31.20;56.00;;;;;;4949471;29;19927;-66
2023/06/08 14:27:23;;;;;;;;;;;31.60;54.90;;;;;;4935816;29;20399;-66
2023/06/08 14:29:55;;;;;;;;;;;31.90;54.20;;;;;;4946131;29;19931;-66
2023/06/08 14:32:22;;;;;;;;;;;32.00;52.40;;;;;;4940464;29;19950;-66
2023/06/08 14:34:54;;;;;;;;;;;32.00;52.30;;;;;;4941599;29;19941;-70
2023/06/08 14:37:26;;;;;;;;;;;32.30;51.90;;;;;;4934131;29;19927;-67
2023/06/08 14:39:58;;;;;;;;;;;32.30;50.70;;;;;;4937102;29;19926;-67
2023/06/08 14:42:29;;;;;;;;;;;32.30;51.00;;;;;;4926033;29;19933;-69
2023/06/08 14:45:01;;;;;;;;;;;32.30;52.30;;;;;;4932089;29;19926;-71